Time;durP1;ratioP1;P1;durP2;ratioP2;P2;SDS_P1;SDS_P2;PMS_P1;PMS_P2;Temp;Humidity;BMP_temperature;BMP_pressure;BME280_temperature;BME280_humidity;BME280_pressure;Samples;Min_cycle;Max_cycle;Signal;HPM_P1;HPM_P2
2022/01/08 08:35:34;;;;;;;11.10;7.22;;;;;;;;;;10903741;22;20057;-81
2022/01/08 08:40:35;;;;;;;8.98;6.78;;;;;;;;;;10473916;28;20094;-81
2022/01/08 08:45:36;;;;;;;;;;;;;;;;;;10474794;28;20044;-81
2022/01/08 08:50:37;;;;;;;9.60;7.50;;;;;;;;;;10470751;28;19952;-80
2022/01/08 08:55:38;;;;;;;9.05;7.20;;;;;;;;;;10470440;28;20044;-80
2022/01/08 09:00:42;;;;;;;;;;;;;;;;;;10487701;28;20040;-79
2022/01/08 09:05:46;;;;;;;10.40;7.15;;;;;;;;;;10468362;28;19908;-80
2022/01/08 09:10:47;;;;;;;9.18;6.63;;;;;;;;;;10470717;28;20032;-80
2022/01/08 09:15:48;;;;;;;;;;;;;;;;;;10469548;28;20380;-80
2022/01/08 09:20:55;;;;;;;10.13;7.35;;;;;;;;;;10486182;28;19932;-80
2022/01/08 09:26:17;;;;;;;10.20;7.95;;;;;;;;;;10458657;28;20095;-80
2022/01/08 09:31:36;;;;;;;8.50;6.35;;;;;;;;;;10479061;28;20056;-85
2022/01/08 09:36:38;;;;;;;15.05;11.15;;;;;;;;;;10465535;28;20131;-81
2022/01/08 09:42:00;;;;;;;8.73;6.68;;;;;;;;;;10464992;28;20037;-80
2022/01/08 09:47:01;;;;;;;8.93;6.20;;;;;;;;;;10455769;28;20064;-81
2022/01/08 09:52:03;;;;;;;10.02;7.95;;;;;;;;;;10467780;28;20032;-81
2022/01/08 09:57:04;;;;;;;9.40;6.82;;;;;;;;;;10468456;28;20095;-82
2022/01/08 10:02:05;;;;;;;;;;;;;;;;;;10480937;28;20029;-79
2022/01/08 10:07:14;;;;;;;11.20;8.15;;;;;;;;;;10474791;28;19944;-81
2022/01/08 10:12:15;;;;;;;12.15;9.40;;;;;;;;;;10458263;28;20043;-81
2022/01/08 10:17:16;;;;;;;7.10;5.65;;;;;;;;;;10460500;28;20059;-81
2022/01/08 10:22:19;;;;;;;;;;;;;;;;;;10455513;28;20041;-82
2022/01/08 10:27:34;;;;;;;13.02;9.18;;;;;;;;;;10455296;28;19987;-81
2022/01/08 10:32:35;;;;;;;7.90;5.07;;;;;;;;;;10449436;28;20060;-82
2022/01/08 10:37:51;;;;;;;9.45;5.88;;;;;;;;;;10446093;28;20139;-81
2022/01/08 10:42:52;;;;;;;9.00;6.40;;;;;;;;;;10445206;28;20037;-83
2022/01/08 10:48:03;;;;;;;12.13;5.80;;;;;;;;;;10445525;28;20033;-82
2022/01/08 10:53:05;;;;;;;7.97;5.50;;;;;;;;;;10444870;28;20025;-82
2022/01/08 10:58:06;;;;;;;9.95;6.32;;;;;;;;;;10444021;28;20048;-81
2022/01/08 11:03:06;;;;;;;;;;;;;;;;;;10443408;28;20043;-81
2022/01/08 11:08:15;;;;;;;8.65;6.15;;;;;;;;;;10444749;28;19912;-81
2022/01/08 11:13:18;;;;;;;8.63;6.03;;;;;;;;;;10446007;28;20036;-81
2022/01/08 11:18:19;;;;;;;8.93;5.75;;;;;;;;;;10447268;28;20088;-81
2022/01/08 11:23:25;;;;;;;8.02;4.18;;;;;;;;;;10450148;28;20050;-79
2022/01/08 11:28:59;;;;;;;7.82;4.45;;;;;;;;;;10463636;28;20041;-79
2022/01/08 11:34:09;;;;;;;6.40;3.85;;;;;;;;;;10474894;28;20039;-78
2022/01/08 11:39:12;;;;;;;5.72;3.75;;;;;;;;;;10494372;28;20479;-79
2022/01/08 11:44:45;;;;;;;10.15;5.95;;;;;;;;;;10462307;28;20140;-80
2022/01/08 11:49:57;;;;;;;6.97;4.07;;;;;;;;;;10483617;28;20037;-80
2022/01/08 12:12:13;;;;;;;7.95;3.88;;;;;;;;;;10473609;28;20025;-79
2022/01/08 12:17:17;;;;;;;5.97;4.00;;;;;;;;;;10464609;28;20483;-79
2022/01/08 12:23:16;;;;;;;7.95;5.15;;;;;;;;;;10502635;28;20109;-80
2022/01/08 12:28:39;;;;;;;6.53;3.65;;;;;;;;;;10492697;28;20037;-79
2022/01/08 12:39:03;;;;;;;5.80;3.03;;;;;;;;;;10464813;28;20037;-80
2022/01/08 12:44:27;;;;;;;7.45;3.92;;;;;;;;;;10455322;28;20036;-79
2022/01/08 12:49:37;;;;;;;5.60;2.47;;;;;;;;;;10464235;28;20029;-83
2022/01/08 12:54:43;;;;;;;4.40;2.10;;;;;;;;;;10473551;28;20043;-85
2022/01/08 12:59:49;;;;;;;7.40;3.45;;;;;;;;;;10476307;28;20268;-87
2022/01/08 13:04:53;;;;;;;5.28;2.80;;;;;;;;;;10475488;28;20061;-86
2022/01/08 13:09:58;;;;;;;4.63;2.53;;;;;;;;;;10475654;28;20108;-87
2022/01/08 13:15:05;;;;;;;7.15;2.72;;;;;;;;;;10476170;28;20079;-89
2022/01/08 13:20:07;;;;;;;4.95;2.67;;;;;;;;;;10476276;28;20021;-88
2022/01/08 13:25:09;;;;;;;8.82;3.17;;;;;;;;;;10475007;28;20033;-88
2022/01/08 13:30:10;;;;;;;3.65;2.35;;;;;;;;;;10474733;28;20025;-88
2022/01/08 13:35:15;;;;;;;6.25;2.78;;;;;;;;;;10473418;28;20044;-86
2022/01/08 13:40:16;;;;;;;6.55;3.00;;;;;;;;;;10473735;28;20068;-87
2022/01/08 13:45:18;;;;;;;5.70;2.83;;;;;;;;;;10473534;28;20029;-87
2022/01/08 13:50:22;;;;;;;5.00;2.80;;;;;;;;;;10473809;28;20037;-86
2022/01/08 13:55:23;;;;;;;6.60;2.47;;;;;;;;;;10472790;28;20037;-87
2022/01/08 14:00:28;;;;;;;4.65;2.33;;;;;;;;;;10473742;28;20127;-87
2022/01/08 14:05:29;;;;;;;6.88;2.88;;;;;;;;;;10472575;28;20037;-87
2022/01/08 14:10:44;;;;;;;4.70;2.45;;;;;;;;;;10472073;28;20051;-87
2022/01/08 14:15:49;;;;;;;5.13;2.15;;;;;;;;;;10487891;28;20088;-86
2022/01/08 14:20:56;;;;;;;4.63;2.25;;;;;;;;;;10470364;28;20048;-87
2022/01/08 14:25:57;;;;;;;6.38;2.85;;;;;;;;;;10469465;28;20056;-87
2022/01/08 14:31:18;;;;;;;3.72;1.90;;;;;;;;;;10466173;28;20516;-87
2022/01/08 14:36:19;;;;;;;5.43;2.38;;;;;;;;;;10467264;28;20052;-88
2022/01/08 14:41:34;;;;;;;4.43;2.30;;;;;;;;;;10477561;28;20039;-83
2022/01/08 14:46:35;;;;;;;5.50;2.60;;;;;;;;;;10477581;28;20041;-87
2022/01/08 14:51:37;;;;;;;;;;;;;;;;;;10471702;28;20039;-87
2022/01/08 14:56:44;;;;;;;3.20;2.00;;;;;;;;;;10468260;28;19912;-87
2022/01/08 15:01:45;;;;;;;3.78;2.20;;;;;;;;;;10468628;28;20097;-88
2022/01/08 15:06:48;;;;;;;4.82;2.47;;;;;;;;;;10468040;28;20040;-87
2022/01/08 15:11:49;;;;;;;3.72;2.38;;;;;;;;;;10467380;28;20460;-87
2022/01/08 15:16:50;;;;;;;5.00;2.63;;;;;;;;;;10468418;28;20482;-87
2022/01/08 15:21:52;;;;;;;4.50;2.50;;;;;;;;;;10466570;28;20044;-87
2022/01/08 15:26:54;;;;;;;4.97;2.95;;;;;;;;;;10468189;28;20037;-87
2022/01/08 15:31:56;;;;;;;4.35;2.80;;;;;;;;;;10470144;28;20378;-87
2022/01/08 15:36:58;;;;;;;4.35;2.45;;;;;;;;;;10484351;28;20099;-87
2022/01/08 15:41:59;;;;;;;4.15;2.58;;;;;;;;;;10464944;28;20068;-86
2022/01/08 15:47:00;;;;;;;3.60;1.90;;;;;;;;;;10459399;28;20044;-87
2022/01/08 15:52:01;;;;;;;3.95;2.30;;;;;;;;;;10463768;28;20040;-86
2022/01/08 15:57:02;;;;;;;2.75;1.65;;;;;;;;;;10465719;28;20045;-87
2022/01/08 16:02:04;;;;;;;2.97;1.50;;;;;;;;;;10471140;28;20072;-87
2022/01/08 16:07:06;;;;;;;2.53;1.20;;;;;;;;;;10487387;28;20068;-86
2022/01/08 16:12:07;;;;;;;3.17;1.42;;;;;;;;;;10491455;28;20052;-87
2022/01/08 16:17:08;;;;;;;1.70;0.93;;;;;;;;;;10493489;28;20029;-86
2022/01/08 16:22:09;;;;;;;1.83;1.10;;;;;;;;;;10487878;28;20063;-87
2022/01/08 16:27:11;;;;;;;1.65;0.82;;;;;;;;;;10479897;28;20394;-85
2022/01/08 16:32:12;;;;;;;5.90;3.83;;;;;;;;;;10496391;28;20032;-86
2022/01/08 16:37:13;;;;;;;2.08;1.30;;;;;;;;;;10481351;28;20076;-87
2022/01/08 16:42:14;;;;;;;1.92;1.17;;;;;;;;;;10475605;28;20032;-87
2022/01/08 16:47:19;;;;;;;2.05;1.35;;;;;;;;;;10476982;28;20048;-87
2022/01/08 16:52:20;;;;;;;2.17;1.10;;;;;;;;;;10475030;28;20374;-87
2022/01/08 16:57:21;;;;;;;2.83;1.10;;;;;;;;;;10473015;28;20136;-87
2022/01/08 17:02:22;;;;;;;3.70;1.15;;;;;;;;;;10485092;28;20032;-82
2022/01/08 17:07:23;;;;;;;1.60;1.00;;;;;;;;;;10480235;28;20113;-87
2022/01/08 17:12:24;;;;;;;2.15;1.10;;;;;;;;;;10473732;28;20037;-88
2022/01/08 17:17:26;;;;;;;3.38;1.30;;;;;;;;;;10474694;28;20033;-87
2022/01/08 17:22:27;;;;;;;1.70;1.10;;;;;;;;;;10473968;28;20029;-87
2022/01/08 17:27:28;;;;;;;2.38;1.33;;;;;;;;;;10474237;28;20053;-88
2022/01/08 17:32:30;;;;;;;1.77;1.10;;;;;;;;;;10475378;28;20033;-87
2022/01/08 17:37:31;;;;;;;2.08;1.23;;;;;;;;;;10473583;28;20048;-87
2022/01/08 17:42:34;;;;;;;3.17;1.17;;;;;;;;;;10472410;28;20136;-87
2022/01/08 23:53:29;;;;;;;;;;;;;;;;;;10500529;22;20112;-85
2022/01/08 23:58:57;;;;;;;0.40;0.40;;;;;;;;;;10473159;28;20358;-85
